sensor_id;sensor_type;location;lat;lon;timestamp;P1;durP1;ratioP1;P2;durP2;ratioP2
72688;SDS011;61053;52.166;4.506;2022-08-24T00:01:23;8.27;;;4.15;;
72688;SDS011;61053;52.166;4.506;2022-08-24T00:03:51;6.47;;;4.82;;
72688;SDS011;61053;52.166;4.506;2022-08-24T00:06:19;7.25;;;5.00;;
72688;SDS011;61053;52.166;4.506;2022-08-24T00:08:47;6.35;;;4.63;;
72688;SDS011;61053;52.166;4.506;2022-08-24T00:11:15;7.22;;;4.75;;
72688;SDS011;61053;52.166;4.506;2022-08-24T00:13:43;6.55;;;4.85;;
72688;SDS011;61053;52.166;4.506;2022-08-24T00:16:10;8.40;;;5.35;;
72688;SDS011;61053;52.166;4.506;2022-08-24T00:18:38;7.38;;;5.50;;
72688;SDS011;61053;52.166;4.506;2022-08-24T00:21:08;5.72;;;4.97;;
72688;SDS011;61053;52.166;4.506;2022-08-24T00:23:34;6.45;;;5.30;;
72688;SDS011;61053;52.166;4.506;2022-08-24T00:26:00;7.93;;;5.18;;
72688;SDS011;61053;52.166;4.506;2022-08-24T00:28:26;6.32;;;5.13;;
72688;SDS011;61053;52.166;4.506;2022-08-24T00:30:51;5.72;;;5.22;;
72688;SDS011;61053;52.166;4.506;2022-08-24T00:33:17;11.27;;;6.28;;
72688;SDS011;61053;52.166;4.506;2022-08-24T00:35:43;12.40;;;5.60;;
72688;SDS011;61053;52.166;4.506;2022-08-24T00:38:09;7.10;;;6.00;;
72688;SDS011;61053;52.166;4.506;2022-08-24T00:40:36;7.82;;;6.03;;
72688;SDS011;61053;52.166;4.506;2022-08-24T00:43:07;9.07;;;6.68;;
72688;SDS011;61053;52.166;4.506;2022-08-24T00:45:43;12.52;;;7.35;;
72688;SDS011;61053;52.166;4.506;2022-08-24T00:48:22;9.63;;;6.97;;
72688;SDS011;61053;52.166;4.506;2022-08-24T00:50:55;9.18;;;7.20;;
72688;SDS011;61053;52.166;4.506;2022-08-24T00:53:28;10.80;;;7.85;;
72688;SDS011;61053;52.166;4.506;2022-08-24T00:56:02;10.90;;;7.47;;
72688;SDS011;61053;52.166;4.506;2022-08-24T00:58:35;11.40;;;7.05;;
72688;SDS011;61053;52.166;4.506;2022-08-24T01:01:07;11.63;;;7.72;;
72688;SDS011;61053;52.166;4.506;2022-08-24T01:03:34;9.82;;;7.10;;
72688;SDS011;61053;52.166;4.506;2022-08-24T01:06:01;13.20;;;7.82;;
72688;SDS011;61053;52.166;4.506;2022-08-24T01:08:27;11.90;;;7.68;;
72688;SDS011;61053;52.166;4.506;2022-08-24T01:10:55;11.55;;;8.88;;
72688;SDS011;61053;52.166;4.506;2022-08-24T01:13:29;10.93;;;8.75;;
72688;SDS011;61053;52.166;4.506;2022-08-24T01:16:03;13.32;;;10.00;;
72688;SDS011;61053;52.166;4.506;2022-08-24T01:18:32;14.68;;;11.52;;
72688;SDS011;61053;52.166;4.506;2022-08-24T01:24:03;16.25;;;13.15;;
72688;SDS011;61053;52.166;4.506;2022-08-24T01:26:36;18.35;;;12.98;;
72688;SDS011;61053;52.166;4.506;2022-08-24T01:29:12;20.25;;;14.40;;
72688;SDS011;61053;52.166;4.506;2022-08-24T01:31:46;22.55;;;13.68;;
72688;SDS011;61053;52.166;4.506;2022-08-24T01:34:12;18.63;;;14.45;;
72688;SDS011;61053;52.166;4.506;2022-08-24T01:36:39;18.67;;;14.82;;
72688;SDS011;61053;52.166;4.506;2022-08-24T01:39:12;18.73;;;14.68;;
72688;SDS011;61053;52.166;4.506;2022-08-24T01:41:46;22.75;;;14.05;;
72688;SDS011;61053;52.166;4.506;2022-08-24T01:44:12;19.35;;;13.88;;
72688;SDS011;61053;52.166;4.506;2022-08-24T01:46:42;19.80;;;13.23;;
72688;SDS011;61053;52.166;4.506;2022-08-24T01:49:12;15.38;;;12.90;;
72688;SDS011;61053;52.166;4.506;2022-08-24T01:51:39;18.33;;;13.90;;
72688;SDS011;61053;52.166;4.506;2022-08-24T01:54:06;18.80;;;13.27;;
72688;SDS011;61053;52.166;4.506;2022-08-24T01:56:33;20.67;;;13.85;;
72688;SDS011;61053;52.166;4.506;2022-08-24T01:58:58;18.08;;;14.02;;
72688;SDS011;61053;52.166;4.506;2022-08-24T02:01:25;23.77;;;15.82;;
72688;SDS011;61053;52.166;4.506;2022-08-24T02:03:55;18.35;;;14.00;;
72688;SDS011;61053;52.166;4.506;2022-08-24T02:06:26;23.58;;;16.25;;
72688;SDS011;61053;52.166;4.506;2022-08-24T02:08:52;21.52;;;16.13;;
72688;SDS011;61053;52.166;4.506;2022-08-24T02:11:19;24.60;;;18.02;;
72688;SDS011;61053;52.166;4.506;2022-08-24T02:13:46;24.65;;;17.65;;
72688;SDS011;61053;52.166;4.506;2022-08-24T02:16:11;21.77;;;16.90;;
72688;SDS011;61053;52.166;4.506;2022-08-24T02:18:38;29.23;;;18.90;;
72688;SDS011;61053;52.166;4.506;2022-08-24T02:21:05;29.08;;;17.33;;
72688;SDS011;61053;52.166;4.506;2022-08-24T02:23:33;22.08;;;16.30;;
72688;SDS011;61053;52.166;4.506;2022-08-24T02:26:04;23.45;;;16.92;;
72688;SDS011;61053;52.166;4.506;2022-08-24T02:28:32;21.73;;;16.45;;
72688;SDS011;61053;52.166;4.506;2022-08-24T02:30:59;24.25;;;16.60;;
72688;SDS011;61053;52.166;4.506;2022-08-24T02:33:26;21.35;;;15.43;;
72688;SDS011;61053;52.166;4.506;2022-08-24T02:35:51;19.13;;;13.60;;
72688;SDS011;61053;52.166;4.506;2022-08-24T02:38:18;20.35;;;14.52;;
72688;SDS011;61053;52.166;4.506;2022-08-24T02:40:45;21.60;;;13.95;;
72688;SDS011;61053;52.166;4.506;2022-08-24T02:43:11;20.58;;;15.07;;
72688;SDS011;61053;52.166;4.506;2022-08-24T02:45:39;16.77;;;13.15;;
72688;SDS011;61053;52.166;4.506;2022-08-24T02:48:07;20.77;;;14.93;;
72688;SDS011;61053;52.166;4.506;2022-08-24T02:50:37;18.85;;;14.48;;
72688;SDS011;61053;52.166;4.506;2022-08-24T02:53:08;18.73;;;13.40;;
72688;SDS011;61053;52.166;4.506;2022-08-24T02:55:38;22.55;;;13.82;;
72688;SDS011;61053;52.166;4.506;2022-08-24T02:58:05;19.10;;;14.40;;
72688;SDS011;61053;52.166;4.506;2022-08-24T03:00:33;19.23;;;13.82;;
72688;SDS011;61053;52.166;4.506;2022-08-24T03:03:00;19.42;;;13.30;;
72688;SDS011;61053;52.166;4.506;2022-08-24T03:05:27;18.40;;;13.40;;
72688;SDS011;61053;52.166;4.506;2022-08-24T03:07:53;15.93;;;11.93;;
72688;SDS011;61053;52.166;4.506;2022-08-24T03:10:19;15.02;;;11.88;;
72688;SDS011;61053;52.166;4.506;2022-08-24T03:12:48;15.90;;;12.70;;
72688;SDS011;61053;52.166;4.506;2022-08-24T03:15:15;17.48;;;12.60;;
72688;SDS011;61053;52.166;4.506;2022-08-24T03:17:42;16.55;;;11.82;;
72688;SDS011;61053;52.166;4.506;2022-08-24T03:20:10;15.45;;;12.07;;
72688;SDS011;61053;52.166;4.506;2022-08-24T03:22:40;15.27;;;10.95;;
72688;SDS011;61053;52.166;4.506;2022-08-24T03:25:06;15.00;;;11.35;;
72688;SDS011;61053;52.166;4.506;2022-08-24T03:27:37;15.20;;;10.05;;
72688;SDS011;61053;52.166;4.506;2022-08-24T03:30:03;12.13;;;9.63;;
72688;SDS011;61053;52.166;4.506;2022-08-24T03:32:32;13.18;;;8.35;;
72688;SDS011;61053;52.166;4.506;2022-08-24T03:34:58;13.55;;;8.45;;
72688;SDS011;61053;52.166;4.506;2022-08-24T03:37:23;13.77;;;8.23;;
72688;SDS011;61053;52.166;4.506;2022-08-24T03:39:49;10.02;;;8.02;;
72688;SDS011;61053;52.166;4.506;2022-08-24T03:42:15;10.55;;;7.18;;
72688;SDS011;61053;52.166;4.506;2022-08-24T03:44:43;8.95;;;7.40;;
72688;SDS011;61053;52.166;4.506;2022-08-24T03:47:09;12.15;;;6.95;;
72688;SDS011;61053;52.166;4.506;2022-08-24T03:49:35;11.18;;;7.85;;
72688;SDS011;61053;52.166;4.506;2022-08-24T03:52:02;9.23;;;7.30;;
72688;SDS011;61053;52.166;4.506;2022-08-24T03:54:29;11.45;;;7.53;;
72688;SDS011;61053;52.166;4.506;2022-08-24T03:56:55;8.77;;;6.50;;
72688;SDS011;61053;52.166;4.506;2022-08-24T03:59:21;8.82;;;5.95;;
72688;SDS011;61053;52.166;4.506;2022-08-24T04:01:46;9.70;;;5.82;;
72688;SDS011;61053;52.166;4.506;2022-08-24T04:04:12;10.10;;;5.95;;
72688;SDS011;61053;52.166;4.506;2022-08-24T04:06:38;7.90;;;5.38;;
72688;SDS011;61053;52.166;4.506;2022-08-24T04:09:08;8.60;;;6.00;;
72688;SDS011;61053;52.166;4.506;2022-08-24T04:11:35;8.13;;;6.07;;
72688;SDS011;61053;52.166;4.506;2022-08-24T04:14:01;9.20;;;5.78;;
72688;SDS011;61053;52.166;4.506;2022-08-24T04:16:27;6.70;;;5.50;;
72688;SDS011;61053;52.166;4.506;2022-08-24T04:18:55;8.65;;;6.05;;
72688;SDS011;61053;52.166;4.506;2022-08-24T04:21:30;5.68;;;4.68;;
72688;SDS011;61053;52.166;4.506;2022-08-24T04:23:59;8.20;;;4.78;;
72688;SDS011;61053;52.166;4.506;2022-08-24T04:26:26;8.02;;;5.05;;
72688;SDS011;61053;52.166;4.506;2022-08-24T04:28:55;7.07;;;5.30;;
72688;SDS011;61053;52.166;4.506;2022-08-24T04:31:22;10.70;;;5.65;;
72688;SDS011;61053;52.166;4.506;2022-08-24T04:33:49;6.32;;;4.97;;
72688;SDS011;61053;52.166;4.506;2022-08-24T04:36:17;6.30;;;5.38;;
72688;SDS011;61053;52.166;4.506;2022-08-24T04:38:47;9.40;;;5.43;;
72688;SDS011;61053;52.166;4.506;2022-08-24T04:41:14;6.35;;;5.68;;
72688;SDS011;61053;52.166;4.506;2022-08-24T04:43:44;7.50;;;5.55;;
72688;SDS011;61053;52.166;4.506;2022-08-24T04:46:13;10.70;;;5.80;;
72688;SDS011;61053;52.166;4.506;2022-08-24T04:48:44;8.25;;;5.85;;
72688;SDS011;61053;52.166;4.506;2022-08-24T04:51:17;9.50;;;7.57;;
72688;SDS011;61053;52.166;4.506;2022-08-24T04:53:45;11.90;;;8.38;;
72688;SDS011;61053;52.166;4.506;2022-08-24T04:56:16;13.32;;;9.35;;
72688;SDS011;61053;52.166;4.506;2022-08-24T05:01:15;13.65;;;9.65;;
72688;SDS011;61053;52.166;4.506;2022-08-24T05:03:44;11.40;;;8.95;;
72688;SDS011;61053;52.166;4.506;2022-08-24T05:06:15;17.85;;;9.48;;
72688;SDS011;61053;52.166;4.506;2022-08-24T05:08:46;12.48;;;8.57;;
72688;SDS011;61053;52.166;4.506;2022-08-24T05:11:12;13.60;;;9.52;;
72688;SDS011;61053;52.166;4.506;2022-08-24T05:13:43;12.52;;;8.35;;
72688;SDS011;61053;52.166;4.506;2022-08-24T05:16:12;13.18;;;8.48;;
72688;SDS011;61053;52.166;4.506;2022-08-24T05:18:41;13.32;;;8.50;;
72688;SDS011;61053;52.166;4.506;2022-08-24T05:21:15;15.32;;;8.45;;
72688;SDS011;61053;52.166;4.506;2022-08-24T05:23:45;13.38;;;8.18;;
72688;SDS011;61053;52.166;4.506;2022-08-24T05:26:15;13.68;;;7.70;;
72688;SDS011;61053;52.166;4.506;2022-08-24T05:28:46;10.07;;;7.40;;
72688;SDS011;61053;52.166;4.506;2022-08-24T05:31:16;8.20;;;6.47;;
72688;SDS011;61053;52.166;4.506;2022-08-24T05:33:46;7.95;;;6.53;;
72688;SDS011;61053;52.166;4.506;2022-08-24T05:36:20;7.50;;;5.65;;
72688;SDS011;61053;52.166;4.506;2022-08-24T05:38:51;8.07;;;5.00;;
72688;SDS011;61053;52.166;4.506;2022-08-24T05:41:22;7.63;;;4.80;;
72688;SDS011;61053;52.166;4.506;2022-08-24T05:43:48;10.63;;;5.82;;
72688;SDS011;61053;52.166;4.506;2022-08-24T05:46:14;8.13;;;5.05;;
72688;SDS011;61053;52.166;4.506;2022-08-24T05:48:41;8.68;;;5.93;;
72688;SDS011;61053;52.166;4.506;2022-08-24T05:51:07;54.85;;;9.02;;
72688;SDS011;61053;52.166;4.506;2022-08-24T05:53:35;12.88;;;5.50;;
72688;SDS011;61053;52.166;4.506;2022-08-24T05:56:03;10.45;;;5.40;;
72688;SDS011;61053;52.166;4.506;2022-08-24T05:58:31;8.63;;;4.80;;
72688;SDS011;61053;52.166;4.506;2022-08-24T06:00:57;9.73;;;4.65;;
72688;SDS011;61053;52.166;4.506;2022-08-24T06:03:28;9.85;;;5.45;;
72688;SDS011;61053;52.166;4.506;2022-08-24T06:05:54;6.82;;;4.40;;
72688;SDS011;61053;52.166;4.506;2022-08-24T06:08:19;9.48;;;4.65;;
72688;SDS011;61053;52.166;4.506;2022-08-24T06:10:45;6.57;;;4.75;;
72688;SDS011;61053;52.166;4.506;2022-08-24T06:13:14;7.28;;;4.88;;
72688;SDS011;61053;52.166;4.506;2022-08-24T06:15:40;8.02;;;4.93;;
72688;SDS011;61053;52.166;4.506;2022-08-24T06:18:07;9.45;;;5.05;;
72688;SDS011;61053;52.166;4.506;2022-08-24T06:20:37;10.45;;;4.72;;
72688;SDS011;61053;52.166;4.506;2022-08-24T06:23:07;6.45;;;4.60;;
72688;SDS011;61053;52.166;4.506;2022-08-24T06:25:33;5.95;;;4.60;;
72688;SDS011;61053;52.166;4.506;2022-08-24T06:28:22;5.10;;;4.30;;
72688;SDS011;61053;52.166;4.506;2022-08-24T06:30:49;5.80;;;4.97;;
72688;SDS011;61053;52.166;4.506;2022-08-24T06:33:14;7.78;;;4.82;;
72688;SDS011;61053;52.166;4.506;2022-08-24T06:35:40;6.70;;;4.32;;
72688;SDS011;61053;52.166;4.506;2022-08-24T06:38:06;6.13;;;4.22;;
72688;SDS011;61053;52.166;4.506;2022-08-24T06:40:33;6.70;;;4.18;;
72688;SDS011;61053;52.166;4.506;2022-08-24T06:43:01;7.95;;;3.97;;
72688;SDS011;61053;52.166;4.506;2022-08-24T06:45:28;6.93;;;4.47;;
72688;SDS011;61053;52.166;4.506;2022-08-24T06:47:54;9.13;;;4.80;;
72688;SDS011;61053;52.166;4.506;2022-08-24T06:50:20;12.05;;;4.65;;
72688;SDS011;61053;52.166;4.506;2022-08-24T06:52:49;8.25;;;4.70;;
72688;SDS011;61053;52.166;4.506;2022-08-24T06:55:16;7.72;;;4.57;;
72688;SDS011;61053;52.166;4.506;2022-08-24T06:57:42;7.43;;;4.63;;
72688;SDS011;61053;52.166;4.506;2022-08-24T07:00:08;7.40;;;4.30;;
72688;SDS011;61053;52.166;4.506;2022-08-24T07:02:36;7.88;;;4.28;;
72688;SDS011;61053;52.166;4.506;2022-08-24T07:05:01;8.13;;;5.10;;
72688;SDS011;61053;52.166;4.506;2022-08-24T07:07:27;6.30;;;4.68;;
72688;SDS011;61053;52.166;4.506;2022-08-24T07:09:54;7.10;;;4.53;;
72688;SDS011;61053;52.166;4.506;2022-08-24T07:12:20;7.68;;;4.70;;
72688;SDS011;61053;52.166;4.506;2022-08-24T07:14:45;6.97;;;4.63;;
72688;SDS011;61053;52.166;4.506;2022-08-24T07:17:11;7.47;;;4.70;;
72688;SDS011;61053;52.166;4.506;2022-08-24T07:19:36;10.85;;;3.90;;
72688;SDS011;61053;52.166;4.506;2022-08-24T07:22:02;14.00;;;4.68;;
72688;SDS011;61053;52.166;4.506;2022-08-24T07:24:28;6.43;;;4.13;;
72688;SDS011;61053;52.166;4.506;2022-08-24T07:26:53;9.20;;;4.70;;
72688;SDS011;61053;52.166;4.506;2022-08-24T07:29:19;6.07;;;4.40;;
72688;SDS011;61053;52.166;4.506;2022-08-24T07:31:44;6.10;;;4.10;;
72688;SDS011;61053;52.166;4.506;2022-08-24T07:34:12;6.45;;;3.58;;
72688;SDS011;61053;52.166;4.506;2022-08-24T07:36:42;4.40;;;3.50;;
72688;SDS011;61053;52.166;4.506;2022-08-24T07:39:07;6.10;;;3.90;;
72688;SDS011;61053;52.166;4.506;2022-08-24T07:41:36;7.18;;;3.67;;
72688;SDS011;61053;52.166;4.506;2022-08-24T07:44:04;6.20;;;3.90;;
72688;SDS011;61053;52.166;4.506;2022-08-24T07:46:30;5.60;;;3.30;;
72688;SDS011;61053;52.166;4.506;2022-08-24T07:48:56;11.93;;;3.85;;
72688;SDS011;61053;52.166;4.506;2022-08-24T07:51:22;9.75;;;4.05;;
72688;SDS011;61053;52.166;4.506;2022-08-24T07:53:47;7.32;;;3.22;;
72688;SDS011;61053;52.166;4.506;2022-08-24T07:56:13;7.25;;;3.00;;
72688;SDS011;61053;52.166;4.506;2022-08-24T07:58:38;7.00;;;2.92;;
72688;SDS011;61053;52.166;4.506;2022-08-24T08:01:04;8.45;;;3.22;;
72688;SDS011;61053;52.166;4.506;2022-08-24T08:03:31;3.53;;;2.85;;
72688;SDS011;61053;52.166;4.506;2022-08-24T08:05:59;6.18;;;3.08;;
72688;SDS011;61053;52.166;4.506;2022-08-24T08:08:30;6.07;;;3.05;;
72688;SDS011;61053;52.166;4.506;2022-08-24T08:10:59;6.38;;;3.60;;
72688;SDS011;61053;52.166;4.506;2022-08-24T08:13:26;4.35;;;2.80;;
72688;SDS011;61053;52.166;4.506;2022-08-24T08:15:53;7.03;;;3.00;;
72688;SDS011;61053;52.166;4.506;2022-08-24T08:18:23;5.47;;;2.83;;
72688;SDS011;61053;52.166;4.506;2022-08-24T08:20:50;4.07;;;3.05;;
72688;SDS011;61053;52.166;4.506;2022-08-24T08:23:15;5.05;;;2.90;;
72688;SDS011;61053;52.166;4.506;2022-08-24T08:26:00;6.38;;;2.45;;
72688;SDS011;61053;52.166;4.506;2022-08-24T08:28:28;3.85;;;2.17;;
72688;SDS011;61053;52.166;4.506;2022-08-24T08:30:58;3.73;;;2.30;;
72688;SDS011;61053;52.166;4.506;2022-08-24T08:33:25;8.25;;;2.60;;
72688;SDS011;61053;52.166;4.506;2022-08-24T08:36:02;4.90;;;2.70;;
72688;SDS011;61053;52.166;4.506;2022-08-24T08:38:33;9.65;;;3.47;;
72688;SDS011;61053;52.166;4.506;2022-08-24T08:41:18;5.53;;;2.40;;
72688;SDS011;61053;52.166;4.506;2022-08-24T08:50:32;6.03;;;2.53;;
72688;SDS011;61053;52.166;4.506;2022-08-24T08:56:28;3.85;;;2.20;;
72688;SDS011;61053;52.166;4.506;2022-08-24T09:05:11;4.57;;;1.55;;
72688;SDS011;61053;52.166;4.506;2022-08-24T09:07:58;1.98;;;1.48;;
72688;SDS011;61053;52.166;4.506;2022-08-24T09:19:41;1.95;;;1.00;;
72688;SDS011;61053;52.166;4.506;2022-08-24T09:22:22;6.63;;;1.42;;
72688;SDS011;61053;52.166;4.506;2022-08-24T09:27:32;6.63;;;1.40;;
72688;SDS011;61053;52.166;4.506;2022-08-24T09:30:34;3.55;;;1.05;;
72688;SDS011;61053;52.166;4.506;2022-08-24T09:33:23;7.15;;;1.52;;
72688;SDS011;61053;52.166;4.506;2022-08-24T09:36:07;5.38;;;1.58;;
72688;SDS011;61053;52.166;4.506;2022-08-24T09:38:52;4.03;;;1.17;;
72688;SDS011;61053;52.166;4.506;2022-08-24T09:50:20;3.75;;;1.35;;
72688;SDS011;61053;52.166;4.506;2022-08-24T10:08:01;2.35;;;1.02;;
72688;SDS011;61053;52.166;4.506;2022-08-24T10:13:52;2.75;;;1.10;;
72688;SDS011;61053;52.166;4.506;2022-08-24T10:28:18;2.53;;;0.95;;
72688;SDS011;61053;52.166;4.506;2022-08-24T10:34:13;2.35;;;0.90;;
72688;SDS011;61053;52.166;4.506;2022-08-24T10:53:50;6.18;;;1.15;;
72688;SDS011;61053;52.166;4.506;2022-08-24T10:56:19;4.32;;;1.23;;
72688;SDS011;61053;52.166;4.506;2022-08-24T11:01:35;4.90;;;1.27;;
72688;SDS011;61053;52.166;4.506;2022-08-24T11:06:38;2.40;;;1.27;;
72688;SDS011;61053;52.166;4.506;2022-08-24T11:09:28;3.50;;;1.65;;
72688;SDS011;61053;52.166;4.506;2022-08-24T11:12:22;4.15;;;1.90;;
72688;SDS011;61053;52.166;4.506;2022-08-24T11:14:52;6.28;;;1.85;;
72688;SDS011;61053;52.166;4.506;2022-08-24T11:17:22;2.00;;;1.60;;
72688;SDS011;61053;52.166;4.506;2022-08-24T11:19:50;3.08;;;1.98;;
72688;SDS011;61053;52.166;4.506;2022-08-24T11:22:36;3.08;;;1.80;;
72688;SDS011;61053;52.166;4.506;2022-08-24T11:25:27;3.33;;;1.48;;
72688;SDS011;61053;52.166;4.506;2022-08-24T11:28:04;3.15;;;1.50;;
72688;SDS011;61053;52.166;4.506;2022-08-24T11:30:49;5.95;;;1.60;;
72688;SDS011;61053;52.166;4.506;2022-08-24T11:33:31;2.35;;;1.40;;
72688;SDS011;61053;52.166;4.506;2022-08-24T11:36:18;3.00;;;1.48;;
72688;SDS011;61053;52.166;4.506;2022-08-24T11:38:47;3.80;;;1.42;;
72688;SDS011;61053;52.166;4.506;2022-08-24T11:41:38;1.13;;;1.00;;
72688;SDS011;61053;52.166;4.506;2022-08-24T11:44:31;2.20;;;1.08;;
72688;SDS011;61053;52.166;4.506;2022-08-24T11:47:11;3.05;;;0.90;;
72688;SDS011;61053;52.166;4.506;2022-08-24T11:59:01;2.92;;;1.00;;
72688;SDS011;61053;52.166;4.506;2022-08-24T12:04:21;1.67;;;0.98;;
72688;SDS011;61053;52.166;4.506;2022-08-24T12:09:39;2.35;;;1.10;;
72688;SDS011;61053;52.166;4.506;2022-08-24T12:21:32;4.53;;;1.20;;
72688;SDS011;61053;52.166;4.506;2022-08-24T12:24:10;4.90;;;1.17;;
72688;SDS011;61053;52.166;4.506;2022-08-24T12:30:07;4.13;;;1.20;;
72688;SDS011;61053;52.166;4.506;2022-08-24T12:32:40;3.15;;;1.35;;
72688;SDS011;61053;52.166;4.506;2022-08-24T12:35:31;1.40;;;1.10;;
72688;SDS011;61053;52.166;4.506;2022-08-24T12:38:10;4.13;;;1.45;;
72688;SDS011;61053;52.166;4.506;2022-08-24T12:40:50;1.13;;;1.02;;
72688;SDS011;61053;52.166;4.506;2022-08-24T12:43:34;3.15;;;1.38;;
72688;SDS011;61053;52.166;4.506;2022-08-24T12:46:10;2.55;;;1.13;;
72688;SDS011;61053;52.166;4.506;2022-08-24T12:51:18;2.35;;;1.33;;
72688;SDS011;61053;52.166;4.506;2022-08-24T13:09:47;1.05;;;0.90;;
72688;SDS011;61053;52.166;4.506;2022-08-24T13:23:07;3.65;;;1.05;;
72688;SDS011;61053;52.166;4.506;2022-08-24T13:28:42;4.00;;;1.00;;
72688;SDS011;61053;52.166;4.506;2022-08-24T13:31:18;6.15;;;1.20;;
72688;SDS011;61053;52.166;4.506;2022-08-24T13:34:25;1.55;;;1.20;;
72688;SDS011;61053;52.166;4.506;2022-08-24T13:39:54;2.08;;;1.13;;
72688;SDS011;61053;52.166;4.506;2022-08-24T13:45:36;2.13;;;1.00;;
72688;SDS011;61053;52.166;4.506;2022-08-24T13:53:42;2.67;;;1.10;;
72688;SDS011;61053;52.166;4.506;2022-08-24T13:59:35;4.80;;;2.33;;
72688;SDS011;61053;52.166;4.506;2022-08-24T14:02:38;2.35;;;1.20;;
72688;SDS011;61053;52.166;4.506;2022-08-24T14:05:34;2.67;;;1.30;;
72688;SDS011;61053;52.166;4.506;2022-08-24T14:20:13;6.85;;;1.70;;
72688;SDS011;61053;52.166;4.506;2022-08-24T14:34:34;2.97;;;1.77;;
72688;SDS011;61053;52.166;4.506;2022-08-24T14:42:23;4.90;;;2.28;;
72688;SDS011;61053;52.166;4.506;2022-08-24T14:45:09;5.43;;;2.55;;
72688;SDS011;61053;52.166;4.506;2022-08-24T14:48:22;4.65;;;2.33;;
72688;SDS011;61053;52.166;4.506;2022-08-24T15:10:51;2.78;;;2.58;;
72688;SDS011;61053;52.166;4.506;2022-08-24T15:13:46;4.85;;;3.30;;
72688;SDS011;61053;52.166;4.506;2022-08-24T15:16:26;5.72;;;3.58;;
72688;SDS011;61053;52.166;4.506;2022-08-24T15:19:03;3.67;;;3.17;;
72688;SDS011;61053;52.166;4.506;2022-08-24T15:24:54;6.07;;;2.83;;
72688;SDS011;61053;52.166;4.506;2022-08-24T15:27:44;5.18;;;2.67;;
72688;SDS011;61053;52.166;4.506;2022-08-24T15:30:27;5.15;;;2.70;;
72688;SDS011;61053;52.166;4.506;2022-08-24T15:33:09;4.57;;;2.10;;
72688;SDS011;61053;52.166;4.506;2022-08-24T15:35:43;2.97;;;2.42;;
72688;SDS011;61053;52.166;4.506;2022-08-24T15:38:17;3.33;;;2.05;;
72688;SDS011;61053;52.166;4.506;2022-08-24T15:41:11;4.15;;;2.40;;
72688;SDS011;61053;52.166;4.506;2022-08-24T15:44:26;3.35;;;2.33;;
72688;SDS011;61053;52.166;4.506;2022-08-24T15:46:30;4.55;;;2.05;;
72688;SDS011;61053;52.166;4.506;2022-08-24T15:55:48;6.50;;;2.03;;
72688;SDS011;61053;52.166;4.506;2022-08-24T16:00:48;3.28;;;2.20;;
72688;SDS011;61053;52.166;4.506;2022-08-24T16:06:22;4.22;;;2.17;;
72688;SDS011;61053;52.166;4.506;2022-08-24T16:11:44;5.90;;;3.03;;
72688;SDS011;61053;52.166;4.506;2022-08-24T16:14:27;3.08;;;2.28;;
72688;SDS011;61053;52.166;4.506;2022-08-24T16:16:56;4.53;;;3.00;;
72688;SDS011;61053;52.166;4.506;2022-08-24T16:19:30;6.38;;;3.75;;
72688;SDS011;61053;52.166;4.506;2022-08-24T16:22:00;9.55;;;4.25;;
72688;SDS011;61053;52.166;4.506;2022-08-24T16:24:38;7.32;;;4.93;;
72688;SDS011;61053;52.166;4.506;2022-08-24T16:34:41;5.95;;;3.70;;
72688;SDS011;61053;52.166;4.506;2022-08-24T16:37:19;6.97;;;3.22;;
72688;SDS011;61053;52.166;4.506;2022-08-24T16:39:47;4.70;;;2.72;;
72688;SDS011;61053;52.166;4.506;2022-08-24T16:42:24;3.92;;;2.50;;
72688;SDS011;61053;52.166;4.506;2022-08-24T16:44:53;3.08;;;2.78;;
72688;SDS011;61053;52.166;4.506;2022-08-24T16:47:20;5.28;;;3.30;;
72688;SDS011;61053;52.166;4.506;2022-08-24T16:49:47;6.00;;;3.00;;
72688;SDS011;61053;52.166;4.506;2022-08-24T16:52:13;4.53;;;3.22;;
72688;SDS011;61053;52.166;4.506;2022-08-24T16:54:39;5.95;;;3.55;;
72688;SDS011;61053;52.166;4.506;2022-08-24T16:57:09;3.17;;;2.88;;
72688;SDS011;61053;52.166;4.506;2022-08-24T16:59:45;4.10;;;2.72;;
72688;SDS011;61053;52.166;4.506;2022-08-24T17:02:14;6.18;;;3.03;;
72688;SDS011;61053;52.166;4.506;2022-08-24T17:04:44;4.95;;;3.30;;
72688;SDS011;61053;52.166;4.506;2022-08-24T17:07:11;3.95;;;2.70;;
72688;SDS011;61053;52.166;4.506;2022-08-24T17:09:49;5.78;;;2.80;;
72688;SDS011;61053;52.166;4.506;2022-08-24T17:12:16;5.35;;;2.92;;
72688;SDS011;61053;52.166;4.506;2022-08-24T17:14:41;6.00;;;2.90;;
72688;SDS011;61053;52.166;4.506;2022-08-24T17:17:09;5.72;;;2.83;;
72688;SDS011;61053;52.166;4.506;2022-08-24T17:19:40;3.00;;;2.65;;
72688;SDS011;61053;52.166;4.506;2022-08-24T17:22:06;4.55;;;2.65;;
72688;SDS011;61053;52.166;4.506;2022-08-24T17:24:32;7.28;;;2.60;;
72688;SDS011;61053;52.166;4.506;2022-08-24T17:26:58;2.70;;;2.50;;
72688;SDS011;61053;52.166;4.506;2022-08-24T17:29:25;5.13;;;3.20;;
72688;SDS011;61053;52.166;4.506;2022-08-24T17:31:51;3.13;;;2.75;;
72688;SDS011;61053;52.166;4.506;2022-08-24T17:34:17;3.63;;;2.70;;
72688;SDS011;61053;52.166;4.506;2022-08-24T17:36:46;2.47;;;2.28;;
72688;SDS011;61053;52.166;4.506;2022-08-24T17:39:16;5.43;;;2.67;;
72688;SDS011;61053;52.166;4.506;2022-08-24T17:41:43;5.18;;;2.80;;
72688;SDS011;61053;52.166;4.506;2022-08-24T17:44:16;6.30;;;2.45;;
72688;SDS011;61053;52.166;4.506;2022-08-24T17:46:49;7.93;;;2.60;;
72688;SDS011;61053;52.166;4.506;2022-08-24T17:49:19;6.13;;;3.38;;
72688;SDS011;61053;52.166;4.506;2022-08-24T17:51:45;5.22;;;2.92;;
72688;SDS011;61053;52.166;4.506;2022-08-24T17:54:12;3.88;;;2.97;;
72688;SDS011;61053;52.166;4.506;2022-08-24T17:56:37;4.38;;;2.80;;
72688;SDS011;61053;52.166;4.506;2022-08-24T17:59:07;5.88;;;2.92;;
72688;SDS011;61053;52.166;4.506;2022-08-24T18:01:46;4.55;;;3.13;;
72688;SDS011;61053;52.166;4.506;2022-08-24T18:04:15;6.20;;;3.20;;
72688;SDS011;61053;52.166;4.506;2022-08-24T18:06:42;8.15;;;3.03;;
72688;SDS011;61053;52.166;4.506;2022-08-24T18:09:13;5.55;;;3.22;;
72688;SDS011;61053;52.166;4.506;2022-08-24T18:11:48;7.38;;;3.38;;
72688;SDS011;61053;52.166;4.506;2022-08-24T18:14:13;6.75;;;3.60;;
72688;SDS011;61053;52.166;4.506;2022-08-24T18:16:39;7.43;;;3.25;;
72688;SDS011;61053;52.166;4.506;2022-08-24T18:19:04;4.03;;;3.22;;
72688;SDS011;61053;52.166;4.506;2022-08-24T18:21:30;5.68;;;3.17;;
72688;SDS011;61053;52.166;4.506;2022-08-24T18:23:55;6.50;;;3.35;;
72688;SDS011;61053;52.166;4.506;2022-08-24T18:26:25;4.63;;;2.97;;
72688;SDS011;61053;52.166;4.506;2022-08-24T18:31:23;4.35;;;2.63;;
72688;SDS011;61053;52.166;4.506;2022-08-24T18:33:50;4.68;;;2.90;;
72688;SDS011;61053;52.166;4.506;2022-08-24T18:36:16;4.05;;;2.33;;
72688;SDS011;61053;52.166;4.506;2022-08-24T18:38:43;3.28;;;2.42;;
72688;SDS011;61053;52.166;4.506;2022-08-24T18:41:11;3.58;;;2.72;;
72688;SDS011;61053;52.166;4.506;2022-08-24T18:43:36;8.20;;;3.65;;
72688;SDS011;61053;52.166;4.506;2022-08-24T18:46:02;10.23;;;3.05;;
72688;SDS011;61053;52.166;4.506;2022-08-24T18:48:29;3.95;;;2.95;;
72688;SDS011;61053;52.166;4.506;2022-08-24T18:50:55;7.50;;;3.15;;
72688;SDS011;61053;52.166;4.506;2022-08-24T18:53:21;3.88;;;3.30;;
72688;SDS011;61053;52.166;4.506;2022-08-24T18:55:50;4.50;;;2.90;;
72688;SDS011;61053;52.166;4.506;2022-08-24T18:58:16;5.80;;;3.53;;
72688;SDS011;61053;52.166;4.506;2022-08-24T19:00:42;3.30;;;2.88;;
72688;SDS011;61053;52.166;4.506;2022-08-24T19:03:12;4.47;;;3.05;;
72688;SDS011;61053;52.166;4.506;2022-08-24T19:05:42;7.50;;;2.90;;
72688;SDS011;61053;52.166;4.506;2022-08-24T19:08:08;3.83;;;2.90;;
72688;SDS011;61053;52.166;4.506;2022-08-24T19:10:35;6.47;;;3.53;;
72688;SDS011;61053;52.166;4.506;2022-08-24T19:13:02;4.68;;;3.38;;
72688;SDS011;61053;52.166;4.506;2022-08-24T19:15:34;5.85;;;4.13;;